Time;durP1;ratioP1;P1;durP2;ratioP2;P2;SDS_P1;SDS_P2;PMS_P1;PMS_P2;Temp;Humidity;BMP_temperature;BMP_pressure;BME280_temperature;BME280_humidity;BME280_pressure;Samples;Min_cycle;Max_cycle;Signal;HPM_P1;HPM_P2
2021/09/10 00:00:01;;;;;;;4.03;1.77;;;;;;;23.32;54.28;101149.09;5056378;28;20490;-81
2021/09/10 00:02:26;;;;;;;4.38;2.10;;;;;;;23.33;54.42;101158.66;5054940;28;20040;-82
2021/09/10 00:04:52;;;;;;;4.38;2.25;;;;;;;23.32;54.77;101156.06;5034999;28;20490;-82
2021/09/10 00:07:17;;;;;;;2.17;1.70;;;;;;;23.32;54.65;101150.81;5034990;28;20373;-81
2021/09/10 00:09:42;;;;;;;2.70;1.70;;;;;;;23.32;54.54;101148.19;5054847;28;20060;-83
2021/09/10 00:12:08;;;;;;;3.15;2.40;;;;;;;23.32;54.49;101156.06;5038511;28;20023;-81
2021/09/10 00:14:33;;;;;;;2.83;1.90;;;;;;;23.32;54.31;101148.19;5044397;28;20067;-80
2021/09/10 00:16:59;;;;;;;3.13;1.70;;;;;;;23.32;54.52;101154.34;5021386;28;20053;-82
2021/09/10 00:19:24;;;;;;;3.08;2.03;;;;;;;23.31;54.33;101149.13;5022074;28;20045;-84
2021/09/10 00:21:49;;;;;;;2.53;1.85;;;;;;;23.32;54.35;101156.06;5034707;28;20404;-83
2021/09/10 00:24:15;;;;;;;3.42;1.95;;;;;;;23.33;54.52;101157.81;5034871;28;20052;-82
2021/09/10 00:26:43;;;;;;;3.50;2.13;;;;;;;23.32;54.76;101150.81;5035966;28;20518;-83
2021/09/10 00:29:08;;;;;;;3.25;2.00;;;;;;;23.32;54.64;101153.44;5018741;28;20033;-82
2021/09/10 00:31:34;;;;;;;3.97;1.73;;;;;;;23.32;54.74;101154.34;5037739;28;20025;-79
2021/09/10 00:33:59;;;;;;;3.47;1.90;;;;;;;23.33;54.77;101144.69;5037792;28;20036;-83
2021/09/10 00:36:25;;;;;;;3.95;2.08;;;;;;;23.32;54.67;101146.47;5037766;28;20037;-80
2021/09/10 00:38:50;;;;;;;4.07;2.20;;;;;;;23.33;54.52;101147.31;5037679;28;20033;-80
2021/09/10 00:41:15;;;;;;;2.88;1.80;;;;;;;23.32;54.82;101140.31;5037226;28;20032;-81
2021/09/10 00:43:41;;;;;;;2.20;1.90;;;;;;;23.31;54.71;101136.84;5037243;28;20060;-81
2021/09/10 00:46:06;;;;;;;3.72;1.95;;;;;;;23.31;54.84;101138.63;5054167;28;20021;-81
2021/09/10 00:48:32;;;;;;;3.15;1.90;;;;;;;23.31;54.71;101136.84;5037484;28;20158;-83
2021/09/10 00:50:58;;;;;;;3.90;2.00;;;;;;;23.30;54.35;101135.13;5053886;28;20024;-83
2021/09/10 00:53:23;;;;;;;4.22;1.80;;;;;;;23.30;54.94;101140.38;5047647;28;20045;-83
2021/09/10 00:55:49;;;;;;;3.65;1.90;;;;;;;23.31;54.88;101133.38;5052195;28;20131;-79
2021/09/10 00:58:15;;;;;;;3.47;2.20;;;;;;;23.31;54.50;101125.50;5054060;28;20171;-80
2021/09/10 01:00:41;;;;;;;2.40;1.75;;;;;;;23.30;54.91;101127.25;5053344;28;20033;-81
2021/09/10 01:03:08;;;;;;;3.63;2.10;;;;;;;23.31;54.67;101130.75;5036921;28;20032;-82
2021/09/10 01:05:34;;;;;;;2.60;1.80;;;;;;;23.31;54.53;101125.50;5053925;28;20033;-79
2021/09/10 01:08:00;;;;;;;2.47;1.85;;;;;;;23.31;54.84;101134.22;5053186;28;20016;-79
2021/09/10 01:10:26;;;;;;;5.50;2.08;;;;;;;23.29;54.78;101125.53;5037210;28;20475;-80
2021/09/10 01:12:53;;;;;;;2.75;2.08;;;;;;;23.30;54.67;101129.88;5020570;28;20489;-81
2021/09/10 01:15:20;;;;;;;2.35;1.65;;;;;;;23.32;54.82;101127.19;5033239;28;20038;-80
2021/09/10 01:17:46;;;;;;;3.45;1.90;;;;;;;23.31;54.61;101123.72;5053517;28;20043;-80
2021/09/10 01:20:12;;;;;;;3.40;1.95;;;;;;;23.32;54.82;101128.06;5036716;28;20036;-80
2021/09/10 01:22:38;;;;;;;4.18;1.90;;;;;;;23.32;54.82;101124.56;5036590;28;20101;-78
2021/09/10 01:25:19;;;;;;;2.58;1.95;;;;;;;23.31;54.65;101121.09;5036777;28;20032;-80
2021/09/10 01:27:54;;;;;;;4.30;2.13;;;;;;;23.31;54.96;101120.22;5060798;28;20039;-81
2021/09/10 01:30:26;;;;;;;3.63;1.70;;;;;;;23.31;55.23;101114.97;5052959;28;20052;-80
2021/09/10 01:32:52;;;;;;;3.05;2.00;;;;;;;23.30;55.16;101116.75;5053609;28;20021;-80
2021/09/10 01:35:18;;;;;;;3.08;1.80;;;;;;;23.30;55.15;101116.75;5053948;28;20452;-81
2021/09/10 01:37:44;;;;;;;4.35;2.03;;;;;;;23.31;54.86;101117.59;5036651;28;20483;-81
2021/09/10 01:40:11;;;;;;;2.53;1.98;;;;;;;23.31;55.28;101120.22;5053464;28;20449;-81
2021/09/10 01:42:37;;;;;;;2.47;1.45;;;;;;;23.30;55.22;101118.50;5052740;28;20064;-82
2021/09/10 01:45:07;;;;;;;2.97;1.85;;;;;;;23.30;55.21;101119.38;5052825;28;20032;-81
2021/09/10 01:47:34;;;;;;;3.33;1.80;;;;;;;23.29;55.39;101119.41;5036810;28;20024;-81
2021/09/10 01:50:00;;;;;;;3.58;2.03;;;;;;;23.28;55.32;101118.56;5033227;28;20458;-80
2021/09/10 01:52:25;;;;;;;2.85;1.70;;;;;;;23.29;55.28;101117.66;5018932;28;20028;-81
2021/09/10 01:54:51;;;;;;;2.78;2.00;;;;;;;23.29;55.30;101116.78;5016600;28;20021;-80
2021/09/10 01:57:16;;;;;;;5.25;1.92;;;;;;;23.29;55.10;101117.66;5032853;28;20533;-81
2021/09/10 01:59:43;;;;;;;2.78;1.70;;;;;;;23.29;55.52;101119.41;5006691;28;20029;-80
2021/09/10 02:02:09;;;;;;;4.32;2.00;;;;;;;23.28;55.28;101121.19;5036362;28;20033;-82
2021/09/10 02:04:35;;;;;;;5.40;2.08;;;;;;;23.28;55.53;101126.44;5019871;28;20036;-80
2021/09/10 02:07:00;;;;;;;3.88;2.15;;;;;;;23.27;55.42;101118.59;5032690;28;20033;-81
2021/09/10 02:09:26;;;;;;;3.60;2.30;;;;;;;23.27;55.26;101118.59;5034318;28;20037;-79
2021/09/10 02:20:27;;;;;;;5.45;2.47;;;;;;;23.29;55.17;101119.41;4203390;23;20049;-78
2021/09/10 02:22:52;;;;;;;2.72;1.98;;;;;;;23.27;55.45;101116.81;4883725;29;20036;-79
2021/09/10 02:25:17;;;;;;;3.53;2.05;;;;;;;23.26;55.47;101115.13;4913898;29;20035;-79
2021/09/10 04:38:12;;;;;;;5.93;4.30;;;;;;;23.22;56.63;101134.50;5891609;24;20013;31
2021/09/10 05:11:09;;;;;;;5.25;4.57;;;;;;;23.25;55.89;101121.25;5038772;24;20033;-84
2021/09/10 05:55:59;;;;;;;10.15;8.15;;;;;;;23.25;56.75;101142.25;4791676;30;20063;-83
2021/09/10 06:05:25;;;;;;;9.48;7.65;;;;;;;23.23;56.87;101151.94;3222654;27;20055;-84
2021/09/10 06:11:41;;;;;;;11.90;7.55;;;;;;;23.23;56.74;101166.84;4820115;29;20034;-82
2021/09/10 06:20:55;;;;;;;10.30;7.85;;;;;;;23.23;56.64;101180.84;4819671;29;20080;-80
2021/09/10 06:23:21;;;;;;;10.40;7.95;;;;;;;23.25;56.94;101192.16;4812159;29;20026;-81
2021/09/10 06:25:46;;;;;;;10.95;7.72;;;;;;;23.24;56.63;101186.97;4768561;29;20038;-81
2021/09/10 06:28:12;;;;;;;10.23;7.97;;;;;;;23.24;56.54;101190.44;4804737;29;20031;-80
2021/09/10 06:30:38;;;;;;;11.35;7.68;;;;;;;23.24;56.79;101189.59;4782209;29;20042;-81
2021/09/10 06:33:03;;;;;;;9.27;7.38;;;;;;;23.25;56.83;101188.66;4811132;29;20058;-81
2021/09/10 06:35:29;;;;;;;10.27;7.70;;;;;;;23.25;56.68;101197.41;4795726;29;20401;-81
2021/09/10 06:37:54;;;;;;;8.43;7.45;;;;;;;23.25;56.71;101200.03;4809735;29;20034;-81
2021/09/10 06:40:20;;;;;;;10.05;7.45;;;;;;;23.25;57.07;101194.78;4777156;29;20034;-81
2021/09/10 06:42:46;;;;;;;9.95;8.07;;;;;;;23.26;56.56;101187.78;4806910;29;20050;-82
2021/09/10 06:45:12;;;;;;;9.52;7.30;;;;;;;23.35;56.62;101198.03;4807735;29;20047;-80
2021/09/10 06:47:38;;;;;;;9.48;7.82;;;;;;;23.35;56.48;101198.03;4792577;29;20502;-80
2021/09/10 06:50:11;;;;;;;9.65;7.75;;;;;;;23.35;56.51;101201.50;4809497;29;20065;-81
2021/09/10 06:52:42;;;;;;;8.90;7.30;;;;;;;23.35;56.69;101200.66;4809261;29;20023;-81
2021/09/10 06:55:29;;;;;;;9.13;7.00;;;;;;;23.35;56.39;101198.88;4816070;29;20078;-85
2021/09/10 06:57:55;;;;;;;16.35;7.28;;;;;;;23.39;56.89;101202.28;4763212;30;20039;-79
2021/09/10 07:00:22;;;;;;;12.20;7.07;;;;;;;23.46;56.55;101195.09;4760569;30;20427;-80
2021/09/10 07:02:47;;;;;;;11.55;6.45;;;;;;;23.52;56.40;101201.03;4741407;30;20135;-81
2021/09/10 07:05:13;;;;;;;8.95;6.82;;;;;;;23.53;56.46;101200.13;4745282;30;20083;-82
2021/09/10 07:08:02;;;;;;;18.70;7.60;;;;;;;23.59;56.88;101199.94;4790396;30;20034;-81
2021/09/10 07:10:48;;;;;;;10.65;7.35;;;;;;;23.56;56.62;101210.56;4780102;30;20032;-82
2021/09/10 07:13:47;;;;;;;15.68;7.60;;;;;;;23.54;56.77;101206.22;4767597;30;20035;-82
2021/09/10 07:23:39;;;;;;;17.90;13.65;;;;;;;23.39;58.43;101215.44;4885968;24;20466;-82
2021/09/10 07:32:49;;;;;;;17.17;14.75;;;;;;;23.45;58.08;101220.47;4845978;29;20049;-84
2021/09/10 07:41:00;;;;;;;24.60;18.60;;;;;;;23.45;58.03;101232.75;4962431;24;20069;-84
2021/09/10 07:43:25;;;;;;;27.20;20.50;;;;;;;23.42;58.42;101239.81;4830596;29;20030;-83
2021/09/10 07:45:51;;;;;;;24.65;20.08;;;;;;;23.42;58.49;101245.06;4831030;29;20054;-83
2021/09/10 07:48:17;;;;;;;27.80;22.40;;;;;;;23.40;58.82;101238.13;4834142;29;20101;-82
2021/09/10 07:50:42;;;;;;;27.85;23.60;;;;;;;23.43;59.06;101243.31;4832112;29;20034;-83
2021/09/10 07:53:08;;;;;;;33.75;24.23;;;;;;;23.40;58.70;101241.63;4831408;29;20029;-83
2021/09/10 07:55:33;;;;;;;33.05;26.23;;;;;;;23.41;59.23;101245.13;4831977;29;20034;-82
2021/09/10 07:57:59;;;;;;;29.73;23.45;;;;;;;23.42;58.98;101247.69;4832615;29;20029;-82
2021/09/10 08:00:25;;;;;;;33.35;24.88;;;;;;;23.45;59.25;101252.00;4846122;29;20088;-84
2021/09/10 08:02:50;;;;;;;31.05;25.83;;;;;;;23.41;59.22;101250.38;4815747;29;20177;-82
2021/09/10 08:05:18;;;;;;;35.33;25.77;;;;;;;23.42;59.78;101257.34;4817231;29;20112;-84
2021/09/10 08:07:44;;;;;;;34.08;26.30;;;;;;;23.44;59.10;101258.16;4845997;29;20059;-84
2021/09/10 08:10:13;;;;;;;30.92;25.77;;;;;;;23.44;59.69;101257.31;4828727;29;20046;-82
2021/09/10 08:15:50;;;;;;;32.55;24.63;;;;;;;23.52;59.54;101260.59;4857803;29;20054;-84
2021/09/10 08:18:16;;;;;;;30.23;25.02;;;;;;;23.49;59.36;101269.41;4827222;29;20034;-83
2021/09/10 08:20:41;;;;;;;30.27;23.80;;;;;;;23.48;59.44;101270.31;4829302;29;20045;-85
2021/09/10 08:23:07;;;;;;;28.58;23.35;;;;;;;23.51;59.21;101269.38;4829928;29;20030;-83
2021/09/10 08:25:32;;;;;;;28.30;22.00;;;;;;;23.51;59.32;101264.97;4825915;29;20381;-82
2021/09/10 08:27:58;;;;;;;28.98;20.70;;;;;;;23.54;59.38;101271.91;4834956;29;20038;-82
2021/09/10 08:33:15;;;;;;;24.33;18.48;;;;;;;23.65;58.76;101272.47;4843662;29;20045;-82
2021/09/10 08:35:41;;;;;;;21.77;17.67;;;;;;;23.78;58.37;101271.25;4831146;29;20026;-85
2021/09/10 08:38:07;;;;;;;19.42;16.77;;;;;;;23.86;57.87;101275.41;4846498;29;20104;-88
2021/09/10 08:40:33;;;;;;;21.30;16.35;;;;;;;23.90;57.83;101270.03;4847083;29;20053;-85
2021/09/10 08:42:59;;;;;;;19.83;15.70;;;;;;;23.93;57.86;101279.59;4830286;29;20076;-87
2021/09/10 08:45:27;;;;;;;18.17;15.50;;;;;;;23.98;57.68;101277.69;4830132;29;20116;-87
2021/09/10 08:47:52;;;;;;;17.15;14.18;;;;;;;24.00;57.44;101279.38;4815300;29;20037;-86
2021/09/10 08:50:18;;;;;;;18.02;14.40;;;;;;;23.97;57.42;101271.56;4814681;29;20037;-86
2021/09/10 08:52:44;;;;;;;15.05;13.45;;;;;;;23.99;57.35;101275.00;4829917;29;20026;-87
2021/09/10 08:55:11;;;;;;;18.38;13.40;;;;;;;24.02;57.41;101271.44;4799759;29;20069;-86
2021/09/10 08:57:44;;;;;;;14.82;13.23;;;;;;;23.92;57.96;101276.09;4829972;29;20026;-87
2021/09/10 09:00:10;;;;;;;19.30;13.77;;;;;;;23.89;58.04;101280.56;4815171;29;20048;-88
2021/09/10 09:02:36;;;;;;;13.95;12.15;;;;;;;23.85;58.54;101281.59;4801142;29;20116;-88
2021/09/10 09:05:01;;;;;;;14.13;12.20;;;;;;;23.83;58.38;101273.75;4817746;29;20034;-89
2021/09/10 09:07:28;;;;;;;17.15;11.70;;;;;;;23.83;58.11;101279.00;4836435;29;20045;-87
2021/09/10 09:09:57;;;;;;;12.98;10.60;;;;;;;23.81;57.97;101279.03;4842353;29;20057;-88
2021/09/10 09:12:53;;;;;;;13.63;11.00;;;;;;;23.78;58.02;101276.50;4831593;29;20026;-84
2021/09/10 09:15:19;;;;;;;12.07;10.07;;;;;;;23.86;58.13;101280.69;4830428;29;20054;-84
2021/09/10 09:17:44;;;;;;;12.20;10.02;;;;;;;23.87;57.97;101274.53;4814111;29;20392;-84
2021/09/10 09:26:54;;;;;;;13.13;10.07;;;;;;;23.78;58.24;101273.03;4851521;29;20149;-82
2021/09/10 09:29:21;;;;;;;14.15;10.05;;;;;;;23.81;58.00;101275.56;4832351;29;20038;-84
2021/09/10 09:32:01;;;;;;;14.38;10.07;;;;;;;23.81;57.95;101280.81;4815699;29;20026;-83
2021/09/10 09:34:47;;;;;;;11.95;8.80;;;;;;;23.79;58.16;101283.47;4829221;29;20030;-83
2021/09/10 09:43:34;;;;;;;55.83;21.05;;;;;;;23.69;58.12;101287.25;4854810;29;20030;-88
2021/09/10 09:46:22;;;;;;;81.95;27.95;;;;;;;23.70;58.41;101288.13;4839582;29;20034;-85
2021/09/10 09:57:55;;;;;;;37.00;15.38;;;;;;;23.73;57.57;101291.50;4869420;24;20096;-84
2021/09/10 10:03:40;;;;;;;31.20;13.00;;;;;;;23.81;57.32;101294.81;5229547;24;20066;-86
2021/09/10 10:06:24;;;;;;;28.70;13.85;;;;;;;23.86;57.09;101297.31;4820979;29;20037;-86
2021/09/10 10:12:13;;;;;;;29.23;13.15;;;;;;;23.91;57.17;101303.31;4832656;29;20056;-86
2021/09/10 10:17:44;;;;;;;20.73;11.30;;;;;;;23.98;56.65;101298.72;4801780;29;20049;-86
2021/09/10 10:20:14;;;;;;;30.45;12.98;;;;;;;23.98;56.29;101306.63;4810006;29;20041;-86
2021/09/10 10:22:40;;;;;;;26.25;12.00;;;;;;;24.00;56.31;101295.16;4795481;29;20117;-87
2021/09/10 10:26:00;;;;;;;26.58;12.07;;;;;;;24.00;56.69;101299.56;4795319;29;20209;-84
2021/09/10 10:28:42;;;;;;;24.55;12.60;;;;;;;23.98;56.81;101304.00;4740964;30;20038;-84
2021/09/10 10:31:08;;;;;;;24.55;12.07;;;;;;;23.95;56.62;101304.94;4829728;29;20047;-85
2021/09/10 10:33:34;;;;;;;24.58;11.80;;;;;;;23.94;56.59;101310.25;4811512;29;20064;-84
2021/09/10 10:36:34;;;;;;;22.98;11.30;;;;;;;23.99;56.54;101306.56;4811362;29;20474;-85
2021/09/10 10:39:09;;;;;;;19.77;10.77;;;;;;;24.00;56.29;101315.31;4810553;29;20030;-87
2021/09/10 10:41:50;;;;;;;18.70;10.93;;;;;;;24.01;56.68;101314.41;4811166;29;20045;-86
2021/09/10 10:44:34;;;;;;;21.67;10.95;;;;;;;24.02;56.31;101318.78;4810799;29;20030;-85
2021/09/10 10:47:12;;;;;;;21.67;10.98;;;;;;;24.02;56.47;101313.50;4827431;29;20385;-87
2021/09/10 10:49:39;;;;;;;17.60;10.77;;;;;;;24.02;56.63;101317.00;4817097;29;20037;-86
2021/09/10 10:52:39;;;;;;;19.45;10.13;;;;;;;24.02;56.18;101314.38;4829460;29;20033;-85
2021/09/10 10:55:24;;;;;;;16.10;9.73;;;;;;;24.00;56.40;101318.81;4791078;29;20121;-86
2021/09/10 10:57:51;;;;;;;14.73;10.40;;;;;;;23.98;56.69;101315.38;4820358;29;20038;-87
2021/09/10 11:01:02;;;;;;;17.13;10.10;;;;;;;24.00;56.25;101316.19;4813765;29;20042;-88
2021/09/10 11:03:48;;;;;;;15.68;9.75;;;;;;;23.97;56.40;101313.63;4822027;29;20069;-85
2021/09/10 11:12:28;;;;;;;14.95;9.70;;;;;;;23.94;56.30;101312.88;4842414;24;20382;-86
2021/09/10 11:14:54;;;;;;;17.23;10.30;;;;;;;23.91;56.28;101313.81;4818128;29;20030;-87
2021/09/10 11:17:26;;;;;;;14.52;10.10;;;;;;;23.91;56.18;101308.56;4832023;29;20106;-86
2021/09/10 11:19:51;;;;;;;15.02;9.60;;;;;;;23.97;56.45;101311.00;4819539;29;20018;-88
2021/09/10 11:22:17;;;;;;;13.75;9.38;;;;;;;24.02;56.26;101305.63;4787484;29;20115;-85
2021/09/10 11:24:43;;;;;;;14.10;9.82;;;;;;;24.06;56.09;101309.00;4815846;29;20124;-86
2021/09/10 11:27:27;;;;;;;13.25;9.43;;;;;;;24.05;55.93;101315.19;4808407;29;20045;-88
2021/09/10 11:29:53;;;;;;;13.63;8.85;;;;;;;24.00;56.24;101308.28;4814358;29;20048;-85
2021/09/10 11:32:25;;;;;;;11.82;9.00;;;;;;;23.99;56.28;101305.69;4800970;29;20030;-86
2021/09/10 11:34:54;;;;;;;12.73;9.02;;;;;;;23.98;56.02;101306.63;4816030;29;20030;-85
2021/09/10 11:37:25;;;;;;;12.65;8.55;;;;;;;24.01;56.55;101307.38;4798616;29;20095;-78
2021/09/10 11:39:50;;;;;;;14.57;9.15;;;;;;;23.99;56.06;101303.06;4812309;29;20026;-79
2021/09/10 11:42:35;;;;;;;12.80;9.15;;;;;;;23.99;56.22;101306.56;4812793;29;20049;-78
2021/09/10 11:45:16;;;;;;;13.43;8.38;;;;;;;23.99;56.28;101301.28;4822691;29;20086;-79
2021/09/10 11:47:42;;;;;;;13.35;9.07;;;;;;;24.01;56.00;101301.25;4830698;29;20026;-79
2021/09/10 11:50:10;;;;;;;11.60;8.20;;;;;;;24.00;55.98;101295.16;4822855;29;20042;-87
2021/09/10 11:52:38;;;;;;;11.90;8.75;;;;;;;24.00;55.85;101295.16;4815447;29;20173;-79
2021/09/10 11:55:11;;;;;;;10.77;8.63;;;;;;;24.01;55.94;101291.59;4800194;29;20030;-79
2021/09/10 11:57:37;;;;;;;;;;;;;;;24.01;55.95;101291.59;4830175;29;20470;-78
2021/09/10 12:00:08;;;;;;;10.48;7.95;;;;;;;24.01;55.77;101294.22;4818600;29;19987;-78
2021/09/10 12:02:34;;;;;;;13.38;8.30;;;;;;;24.00;56.19;101295.16;4814949;29;20086;-76
2021/09/10 12:05:01;;;;;;;11.55;7.93;;;;;;;23.99;56.21;101296.03;4837240;29;20042;-80
2021/09/10 12:07:31;;;;;;;9.98;7.63;;;;;;;24.00;56.06;101294.28;4828952;29;20437;-79
2021/09/10 12:09:57;;;;;;;10.32;7.45;;;;;;;23.99;55.96;101303.06;4813644;29;20037;-79
2021/09/10 12:12:27;;;;;;;9.25;7.43;;;;;;;24.00;56.34;101294.28;4847116;29;20497;-80
2021/09/10 12:14:52;;;;;;;8.80;7.07;;;;;;;23.99;55.71;101298.66;4847519;29;20029;-80
2021/09/10 12:17:24;;;;;;;9.35;7.57;;;;;;;24.00;56.24;101304.81;4847433;29;20540;-79
2021/09/10 12:19:52;;;;;;;10.60;7.43;;;;;;;24.01;56.34;101310.00;4847532;29;20033;-79
2021/09/10 12:22:36;;;;;;;9.70;7.18;;;;;;;24.04;55.82;101306.44;4847224;29;20025;-80
2021/09/10 12:25:30;;;;;;;10.00;7.30;;;;;;;24.06;56.06;101317.75;4864123;29;20488;-80
2021/09/10 12:28:07;;;;;;;9.48;6.80;;;;;;;24.08;55.96;101321.19;4847915;29;20037;-79
2021/09/10 12:30:38;;;;;;;9.07;6.40;;;;;;;24.08;55.48;101321.19;4848916;29;20062;-78
2021/09/10 12:33:06;;;;;;;8.55;6.57;;;;;;;24.06;55.73;101323.00;4867573;29;20476;-86
2021/09/10 12:35:33;;;;;;;6.85;6.13;;;;;;;24.08;55.47;101320.34;4851465;29;20072;-87
2021/09/10 12:38:00;;;;;;;8.90;6.97;;;;;;;24.07;55.80;101324.75;4836267;29;20029;-86
2021/09/10 12:40:32;;;;;;;7.88;6.05;;;;;;;24.06;55.71;101320.38;4838584;29;20029;-88
2021/09/10 12:42:58;;;;;;;7.03;6.03;;;;;;;24.05;55.75;101321.31;4835101;29;20036;-87
2021/09/10 12:45:24;;;;;;;8.00;5.60;;;;;;;24.03;55.67;101321.34;4835618;29;20037;-85
2021/09/10 12:47:50;;;;;;;8.85;6.20;;;;;;;24.04;55.67;101319.59;4833772;29;20048;-84
2021/09/10 12:50:16;;;;;;;11.85;5.95;;;;;;;24.05;55.95;101315.19;4835885;29;20157;-87
2021/09/10 12:52:42;;;;;;;7.65;5.63;;;;;;;24.03;55.76;101313.44;4835232;29;20061;-84
2021/09/10 12:55:09;;;;;;;8.50;6.47;;;;;;;24.04;55.87;101311.72;4835021;29;20044;-86
2021/09/10 12:57:34;;;;;;;6.80;6.03;;;;;;;24.05;56.11;101315.19;4835009;29;20039;-87
2021/09/10 13:00:00;;;;;;;6.57;5.90;;;;;;;24.05;55.80;101315.19;4850441;29;20120;-87
2021/09/10 13:02:26;;;;;;;8.63;5.97;;;;;;;24.03;56.04;101313.44;4819841;29;20154;-84
2021/09/10 13:04:52;;;;;;;8.07;5.65;;;;;;;24.03;55.60;101321.34;4834882;29;20040;-88
2021/09/10 13:07:17;;;;;;;7.75;5.60;;;;;;;24.02;55.61;101319.63;4806945;29;20030;-86
2021/09/10 13:09:43;;;;;;;6.95;5.60;;;;;;;24.02;55.70;101316.16;4831956;29;20040;-84
2021/09/10 13:12:09;;;;;;;7.13;5.50;;;;;;;24.00;55.69;101316.19;4830138;29;20151;-86
2021/09/10 13:14:34;;;;;;;7.38;5.60;;;;;;;23.99;55.50;101317.06;4841790;29;20034;-85
2021/09/10 13:16:59;;;;;;;7.25;5.28;;;;;;;24.02;55.42;101327.50;4836022;29;20041;-88
2021/09/10 13:19:25;;;;;;;7.80;5.20;;;;;;;24.02;55.89;101329.28;4816807;29;20077;-86
2021/09/10 13:21:50;;;;;;;7.72;4.57;;;;;;;24.01;55.24;101323.16;4848317;29;20397;-85
2021/09/10 13:24:19;;;;;;;7.50;5.15;;;;;;;24.03;55.50;101323.13;4819038;29;20041;-86
2021/09/10 13:26:47;;;;;;;5.97;4.43;;;;;;;24.03;55.48;101328.38;4828442;29;20094;-87
2021/09/10 13:29:12;;;;;;;7.90;5.20;;;;;;;24.03;55.43;101325.75;4815178;29;20034;-83
2021/09/10 13:31:38;;;;;;;7.93;5.03;;;;;;;24.05;55.51;101330.97;4835801;29;20061;-85
2021/09/10 13:34:12;;;;;;;8.07;4.50;;;;;;;24.06;55.51;101330.03;4803727;29;20030;-86
2021/09/10 13:36:38;;;;;;;8.00;4.70;;;;;;;24.06;55.43;101332.66;4803049;29;20041;-86
2021/09/10 13:39:04;;;;;;;7.00;4.78;;;;;;;24.05;55.51;101326.56;4821115;29;20026;-86
2021/09/10 13:41:29;;;;;;;10.02;4.55;;;;;;;24.05;55.57;101325.69;4836976;29;20060;-85
2021/09/10 13:43:55;;;;;;;7.78;4.72;;;;;;;24.06;55.42;101337.94;4841259;29;20516;-87
2021/09/10 13:46:21;;;;;;;11.43;5.07;;;;;;;24.06;55.55;101332.66;4829646;29;20034;-85
2021/09/10 13:48:46;;;;;;;9.10;4.95;;;;;;;24.05;55.60;101331.81;4821915;29;20041;-85
2021/09/10 13:51:12;;;;;;;9.40;5.15;;;;;;;24.03;55.03;101334.47;4820780;29;20045;-85
2021/09/10 13:53:38;;;;;;;9.77;5.03;;;;;;;24.03;55.37;101337.09;4824041;29;20045;-85
2021/09/10 13:56:03;;;;;;;9.80;4.80;;;;;;;24.02;55.26;101324.03;4833292;29;20101;-84
2021/09/10 13:58:29;;;;;;;10.10;5.13;;;;;;;24.04;55.41;101335.38;4839198;29;20038;-84
2021/09/10 14:00:55;;;;;;;9.55;5.05;;;;;;;24.03;55.53;101339.75;4856705;29;20026;-86
2021/09/10 14:03:20;;;;;;;9.25;5.00;;;;;;;24.03;55.18;101334.47;4839599;29;20041;-86
2021/09/10 14:05:46;;;;;;;7.55;4.47;;;;;;;24.03;55.43;101329.22;4809605;29;20101;-87
2021/09/10 14:08:12;;;;;;;7.28;5.00;;;;;;;24.03;55.37;101328.38;4817059;29;20030;-86
2021/09/10 14:10:37;;;;;;;7.88;4.78;;;;;;;24.02;55.27;101324.03;4858116;29;20033;-88
2021/09/10 14:16:25;;;;;;;8.25;4.45;;;;;;;24.02;55.72;101332.78;4875019;29;20052;-86
2021/09/10 14:18:50;;;;;;;8.50;4.57;;;;;;;24.01;55.59;101338.91;4851699;29;20480;-86
2021/09/10 14:21:16;;;;;;;7.82;4.20;;;;;;;23.99;55.69;101324.94;4837178;29;20053;-87
2021/09/10 14:23:51;;;;;;;8.52;4.88;;;;;;;24.00;55.89;101328.47;4828081;29;20085;-88
2021/09/10 14:26:25;;;;;;;7.95;4.60;;;;;;;23.98;56.16;101333.75;4856585;29;20053;-86
2021/09/10 14:28:51;;;;;;;8.30;3.90;;;;;;;23.98;56.10;101335.53;4844136;29;20097;-86
2021/09/10 14:31:17;;;;;;;8.90;4.18;;;;;;;23.98;56.20;101333.75;4845385;29;20026;-87
2021/09/10 14:33:53;;;;;;;6.78;4.00;;;;;;;23.96;56.03;101335.56;4864488;29;20400;-86
2021/09/10 14:36:19;;;;;;;6.30;4.22;;;;;;;23.96;56.00;101332.09;4858513;29;20042;-87
2021/09/10 14:42:02;;;;;;;5.90;4.10;;;;;;;23.98;55.83;101330.28;4870792;24;20058;-86
2021/09/10 14:44:46;;;;;;;6.82;4.45;;;;;;;23.99;56.13;101330.22;4841371;29;20075;-88
2021/09/10 14:47:12;;;;;;;9.40;4.13;;;;;;;23.99;56.00;101327.59;4835665;29;20038;-87
2021/09/10 14:49:44;;;;;;;5.78;4.18;;;;;;;24.00;55.99;101329.31;4823259;29;20038;-85
2021/09/10 14:52:09;;;;;;;5.28;4.57;;;;;;;24.02;55.94;101329.28;4836153;29;20556;-86
2021/09/10 14:54:35;;;;;;;6.10;4.47;;;;;;;24.02;55.80;101332.78;4821526;29;20046;-88
2021/09/10 14:57:00;;;;;;;7.60;4.30;;;;;;;24.03;55.95;101331.00;4838214;29;20116;-86
2021/09/10 15:01:55;;;;;;;8.13;5.10;;;;;;;24.03;55.87;101339.75;4838064;29;20041;-86
2021/09/10 15:04:21;;;;;;;5.05;4.38;;;;;;;24.02;55.63;101345.06;4833716;29;20041;-87
2021/09/10 15:06:48;;;;;;;8.52;4.53;;;;;;;24.01;55.92;101349.44;4834348;29;20030;-86
2021/09/10 15:09:14;;;;;;;6.80;4.63;;;;;;;23.99;55.68;101342.50;4818663;29;20069;-87
2021/09/10 15:11:46;;;;;;;5.75;4.30;;;;;;;23.98;55.84;101338.16;4824102;29;20030;-87
2021/09/10 15:14:13;;;;;;;6.03;4.30;;;;;;;24.00;55.98;101334.59;4844430;29;20075;-89
2021/09/10 15:16:45;;;;;;;5.82;4.22;;;;;;;24.01;55.76;101336.28;4837594;29;20179;-87
2021/09/10 15:19:11;;;;;;;6.57;4.93;;;;;;;24.01;55.74;101331.03;4816790;29;20434;-88
2021/09/10 15:21:36;;;;;;;6.55;4.43;;;;;;;24.01;55.74;101336.28;4819498;29;20064;-86
2021/09/10 15:24:02;;;;;;;5.57;4.30;;;;;;;24.01;55.60;101333.66;4812097;29;20035;-87
2021/09/10 15:26:27;;;;;;;6.22;4.25;;;;;;;24.01;55.52;101332.81;4827100;29;20034;-86
2021/09/10 15:28:53;;;;;;;5.60;4.43;;;;;;;23.99;55.74;101327.59;4814629;29;20022;-88
2021/09/10 15:31:18;;;;;;;6.60;4.70;;;;;;;23.99;55.85;101329.34;4841805;29;20038;-86
2021/09/10 15:33:45;;;;;;;5.78;5.00;;;;;;;23.99;55.64;101335.47;4844841;29;20054;-88
2021/09/10 15:36:40;;;;;;;5.85;5.10;;;;;;;23.99;55.62;101327.59;4809124;29;20043;-87
2021/09/10 15:39:06;;;;;;;7.65;4.88;;;;;;;23.99;55.57;101329.34;4839017;29;20065;-86
2021/09/10 15:48:17;;;;;;;8.35;6.00;;;;;;;24.02;55.62;101332.78;4855177;29;20065;-85
2021/09/10 15:50:42;;;;;;;7.88;5.57;;;;;;;24.02;55.59;101330.16;4840302;29;20038;-86
2021/09/10 15:53:08;;;;;;;8.13;5.20;;;;;;;24.03;55.45;101331.00;4845443;29;20059;-85
2021/09/10 15:55:35;;;;;;;19.10;7.78;;;;;;;24.03;55.85;101329.22;4825037;29;20065;-87
2021/09/10 15:58:01;;;;;;;15.82;7.35;;;;;;;24.05;55.73;101329.19;4824147;29;20071;-84
2021/09/10 16:00:27;;;;;;;13.75;6.28;;;;;;;24.04;55.59;101324.84;4824849;29;20106;-85
2021/09/10 16:02:52;;;;;;;12.07;6.50;;;;;;;24.04;55.42;101316.97;4807506;29;20042;-87
2021/09/10 16:05:23;;;;;;;12.40;6.90;;;;;;;24.04;55.14;101322.22;4819211;29;20031;-86
2021/09/10 16:07:48;;;;;;;14.23;7.13;;;;;;;24.03;55.42;101321.34;4816772;29;20444;-86
2021/09/10 16:10:14;;;;;;;15.63;7.88;;;;;;;24.02;55.22;101324.03;4814387;29;20032;-84
2021/09/10 16:12:40;;;;;;;12.25;7.82;;;;;;;24.01;55.03;101320.50;4800686;29;20053;-86
2021/09/10 16:15:06;;;;;;;16.48;7.88;;;;;;;24.05;55.59;101320.44;4796096;29;20066;-84
2021/09/10 16:17:31;;;;;;;16.73;7.97;;;;;;;24.06;55.30;101327.41;4810951;29;20039;-84
2021/09/10 16:19:57;;;;;;;15.80;7.60;;;;;;;24.06;55.25;101325.63;4811587;29;20058;-84
2021/09/10 16:22:23;;;;;;;15.63;8.05;;;;;;;24.05;55.21;101323.06;4799383;29;20542;-85
2021/09/10 16:24:48;;;;;;;16.67;7.70;;;;;;;24.05;54.91;101323.94;4813404;29;20042;-84
2021/09/10 16:27:14;;;;;;;13.05;7.63;;;;;;;24.06;54.95;101324.78;4814277;29;20418;-83
2021/09/10 16:29:41;;;;;;;17.08;8.20;;;;;;;24.05;55.00;101318.66;4813483;29;20094;-83
2021/09/10 16:32:07;;;;;;;16.63;7.80;;;;;;;24.04;55.38;101319.59;4814201;29;20038;-82
2021/09/10 16:34:32;;;;;;;16.02;7.20;;;;;;;24.06;55.06;101322.16;4827994;29;20046;-84